createdAt,value
2018-12-23T00:00:43.862Z,4.53
2018-12-23T00:03:12.559Z,4.97
2018-12-23T00:05:41.125Z,6.33
2018-12-23T00:08:09.681Z,4.50
2018-12-23T00:10:38.164Z,4.83
2018-12-23T00:13:06.648Z,5.30
2018-12-23T00:15:35.162Z,5.97
2018-12-23T00:18:03.679Z,7.87
2018-12-23T00:20:32.276Z,5.30
2018-12-23T00:23:00.799Z,5.80
2018-12-23T00:25:29.296Z,6.13
2018-12-23T00:27:57.813Z,7.17
2018-12-23T00:30:26.436Z,6.60
2018-12-23T00:32:54.933Z,7.23
2018-12-23T00:35:23.393Z,6.87
2018-12-23T00:37:51.901Z,6.90
2018-12-23T00:40:20.444Z,7.13
2018-12-23T00:42:48.930Z,6.27
2018-12-23T00:45:17.472Z,7.03
2018-12-23T00:47:45.957Z,6.67
2018-12-23T00:50:14.474Z,5.90
2018-12-23T00:52:43.035Z,6.27
2018-12-23T00:55:11.565Z,6.03
2018-12-23T00:57:40.180Z,5.57
2018-12-23T01:00:09.513Z,6.43
2018-12-23T01:02:37.999Z,6.67
2018-12-23T01:05:07.257Z,7.00
2018-12-23T01:07:35.785Z,6.37
2018-12-23T01:10:04.565Z,6.47
2018-12-23T01:12:33.124Z,5.73
2018-12-23T01:15:01.642Z,6.13
2018-12-23T01:17:30.243Z,6.20
2018-12-23T01:19:58.741Z,6.53
2018-12-23T01:22:27.254Z,7.37
2018-12-23T01:24:55.770Z,7.37
2018-12-23T01:27:24.251Z,7.83
2018-12-23T01:29:52.762Z,8.03
2018-12-23T01:32:21.296Z,8.63
2018-12-23T01:34:49.796Z,9.43
2018-12-23T01:37:18.319Z,7.73
2018-12-23T01:39:46.846Z,7.83
2018-12-23T01:42:15.365Z,8.23
2018-12-23T01:44:43.880Z,8.00
2018-12-23T01:47:12.403Z,7.93
2018-12-23T01:49:40.892Z,7.93
2018-12-23T01:52:09.470Z,8.10
2018-12-23T01:54:37.969Z,7.23
2018-12-23T01:57:06.513Z,8.00
2018-12-23T01:59:35.065Z,7.90
2018-12-23T02:02:03.568Z,8.87
2018-12-23T02:04:32.054Z,7.83
2018-12-23T02:07:00.556Z,8.07
2018-12-23T02:09:29.066Z,8.17
2018-12-23T02:11:57.610Z,8.37
2018-12-23T02:14:26.126Z,8.03
2018-12-23T02:16:54.673Z,7.80
2018-12-23T02:19:23.167Z,7.87
2018-12-23T02:21:51.719Z,7.80
2018-12-23T02:24:20.190Z,8.03
2018-12-23T02:26:56.480Z,8.30
2018-12-23T02:29:24.938Z,9.73
2018-12-23T02:31:53.425Z,10.30
2018-12-23T02:34:21.918Z,9.80
2018-12-23T02:36:50.436Z,9.67
2018-12-23T02:39:18.948Z,9.20
2018-12-23T02:41:47.529Z,10.57
2018-12-23T02:44:15.998Z,10.80
2018-12-23T02:46:44.521Z,10.83
2018-12-23T02:49:13.124Z,10.13
2018-12-23T02:51:41.613Z,10.53
2018-12-23T02:54:10.128Z,10.50
2018-12-23T02:56:38.770Z,10.70
2018-12-23T02:59:07.353Z,10.47
2018-12-23T03:01:35.841Z,11.27
2018-12-23T03:04:04.416Z,12.23
2018-12-23T03:06:32.908Z,10.47
2018-12-23T03:09:01.457Z,11.47
2018-12-23T03:11:29.997Z,12.50
2018-12-23T03:13:58.512Z,11.30
2018-12-23T03:16:27.065Z,11.40
2018-12-23T03:18:55.609Z,11.63
2018-12-23T03:21:24.097Z,11.80
2018-12-23T03:23:52.554Z,11.63
2018-12-23T03:26:21.028Z,12.63
2018-12-23T03:28:49.500Z,12.13
2018-12-23T03:31:18.060Z,11.93
2018-12-23T03:33:46.625Z,12.20
2018-12-23T03:36:33.194Z,11.77
2018-12-23T03:39:01.709Z,11.87
2018-12-23T03:41:30.231Z,11.57
2018-12-23T03:43:58.810Z,12.23
2018-12-23T03:46:27.291Z,13.40
2018-12-23T03:48:55.844Z,13.27
2018-12-23T03:51:24.304Z,13.37
2018-12-23T03:53:52.807Z,13.50
2018-12-23T03:56:21.279Z,15.33
2018-12-23T03:58:49.757Z,14.63
2018-12-23T04:01:18.452Z,13.30
2018-12-23T04:03:46.919Z,15.00
2018-12-23T04:06:24.271Z,14.87
2018-12-23T04:08:45.938Z,14.13
2018-12-23T04:11:14.398Z,13.43
2018-12-23T04:13:43.050Z,14.60
2018-12-23T04:16:11.556Z,14.13
2018-12-23T04:18:40.106Z,14.90
2018-12-23T04:21:08.620Z,12.70
2018-12-23T04:23:37.147Z,13.40
2018-12-23T04:26:05.622Z,13.37
2018-12-23T04:28:34.131Z,12.00
2018-12-23T04:31:02.639Z,13.00
2018-12-23T04:33:31.120Z,14.00
2018-12-23T04:35:59.612Z,14.00
2018-12-23T04:38:28.137Z,13.20
2018-12-23T04:40:56.651Z,13.73
2018-12-23T04:43:25.179Z,14.00
2018-12-23T04:45:53.723Z,13.07
2018-12-23T04:48:22.256Z,13.57
2018-12-23T04:50:50.776Z,12.60
2018-12-23T04:53:19.327Z,14.47
2018-12-23T04:55:47.883Z,14.77
2018-12-23T04:58:16.527Z,14.90
2018-12-23T05:00:45.073Z,14.87
2018-12-23T05:03:13.561Z,15.33
2018-12-23T05:05:42.073Z,14.90
2018-12-23T05:08:10.621Z,16.43
2018-12-23T05:10:39.142Z,14.93
2018-12-23T05:13:07.701Z,15.17
2018-12-23T05:15:36.204Z,15.07
2018-12-23T05:18:04.713Z,13.77
2018-12-23T05:20:33.296Z,15.83
2018-12-23T05:23:01.881Z,15.80
2018-12-23T05:25:30.389Z,15.30
2018-12-23T05:27:58.888Z,13.73
2018-12-23T05:30:27.480Z,13.90
2018-12-23T05:32:56.044Z,14.50
2018-12-23T05:35:24.623Z,13.90
2018-12-23T05:37:53.231Z,13.93
2018-12-23T05:40:21.694Z,13.73
2018-12-23T05:42:50.220Z,13.97
2018-12-23T05:45:18.754Z,13.83
2018-12-23T05:47:47.236Z,14.23
2018-12-23T05:50:15.792Z,12.90
2018-12-23T05:52:44.270Z,13.27
2018-12-23T05:55:12.777Z,13.63
2018-12-23T05:57:41.289Z,12.17
2018-12-23T06:00:09.796Z,13.10
2018-12-23T06:02:38.282Z,13.97
2018-12-23T06:05:06.818Z,12.00
2018-12-23T06:07:35.312Z,12.07
2018-12-23T06:10:03.821Z,12.70
2018-12-23T06:12:32.314Z,11.73
2018-12-23T06:15:00.855Z,13.33
2018-12-23T06:17:29.334Z,11.50
2018-12-23T06:19:57.857Z,11.37
2018-12-23T06:22:26.302Z,9.93
2018-12-23T06:24:54.859Z,10.70
2018-12-23T06:27:23.396Z,12.30
2018-12-23T06:29:51.995Z,11.37
2018-12-23T06:32:20.470Z,11.43
2018-12-23T06:34:48.947Z,12.30
2018-12-23T06:37:17.508Z,12.40
2018-12-23T06:39:46.021Z,12.40
2018-12-23T06:42:14.601Z,11.63
2018-12-23T06:44:43.101Z,11.70
2018-12-23T06:47:11.674Z,12.10
2018-12-23T06:49:40.179Z,11.57
2018-12-23T06:52:08.683Z,11.63
2018-12-23T06:54:37.161Z,12.53
2018-12-23T06:57:05.641Z,11.77
2018-12-23T06:59:34.191Z,12.27
2018-12-23T07:02:02.687Z,11.63
2018-12-23T07:04:31.277Z,11.93
2018-12-23T07:06:59.797Z,11.07
2018-12-23T07:09:28.381Z,12.30
2018-12-23T07:11:56.924Z,12.17
2018-12-23T07:14:25.407Z,10.93
2018-12-23T07:16:53.827Z,11.13
2018-12-23T07:19:22.405Z,11.10
2018-12-23T07:21:50.920Z,11.23
2018-12-23T07:24:20.452Z,10.80
2018-12-23T07:26:48.958Z,10.67
2018-12-23T07:29:17.437Z,9.90
2018-12-23T07:31:45.910Z,9.77
2018-12-23T07:34:14.441Z,9.40
2018-12-23T07:36:49.493Z,9.57
2018-12-23T07:39:13.464Z,9.57
2018-12-23T07:41:41.928Z,9.67
2018-12-23T07:44:10.420Z,8.97
2018-12-23T07:46:38.913Z,8.63
2018-12-23T07:49:07.422Z,9.37
2018-12-23T07:51:35.876Z,9.77
2018-12-23T07:54:04.344Z,9.07
2018-12-23T07:56:32.777Z,9.03
2018-12-23T07:59:01.316Z,8.07
2018-12-23T08:01:29.760Z,7.83
2018-12-23T08:03:58.227Z,8.27
2018-12-23T08:06:26.829Z,8.47
2018-12-23T08:08:55.344Z,8.23
2018-12-23T08:11:23.861Z,7.63
2018-12-23T08:13:52.390Z,7.87
2018-12-23T08:16:20.911Z,9.00
2018-12-23T08:18:49.572Z,7.37
2018-12-23T08:21:18.047Z,7.63
2018-12-23T08:23:46.556Z,6.87
2018-12-23T08:26:15.101Z,7.43
2018-12-23T08:31:43.165Z,6.73
2018-12-23T08:34:11.680Z,7.00
2018-12-23T08:36:40.234Z,7.33
2018-12-23T08:39:08.768Z,6.67
2018-12-23T08:41:37.434Z,6.67
2018-12-23T08:44:05.998Z,6.47
2018-12-23T08:46:39.179Z,6.10
2018-12-23T08:49:05.142Z,6.17
2018-12-23T08:51:33.696Z,6.07
2018-12-23T08:54:02.240Z,6.30
2018-12-23T08:56:30.830Z,6.00
2018-12-23T08:58:59.389Z,5.63
2018-12-23T09:01:27.919Z,6.47
2018-12-23T09:03:56.486Z,5.93
2018-12-23T09:06:25.058Z,5.33
2018-12-23T09:08:53.569Z,5.63
2018-12-23T09:11:22.074Z,5.33
2018-12-23T09:13:50.724Z,5.43
2018-12-23T09:16:19.220Z,6.13
2018-12-23T09:18:47.718Z,5.13
2018-12-23T09:21:16.337Z,5.10
2018-12-23T09:23:44.936Z,5.50
2018-12-23T09:26:13.493Z,5.93
2018-12-23T09:28:42.043Z,5.57
2018-12-23T09:31:10.634Z,6.50
2018-12-23T09:33:39.138Z,5.80
2018-12-23T09:36:07.703Z,6.03
2018-12-23T09:38:54.158Z,6.60
2018-12-23T09:41:22.678Z,6.47
2018-12-23T09:43:51.194Z,6.43
2018-12-23T09:46:19.699Z,6.07
2018-12-23T09:48:58.325Z,5.57
2018-12-23T09:51:26.938Z,6.23
2018-12-23T09:53:55.497Z,5.00
2018-12-23T09:56:23.990Z,6.50
2018-12-23T09:58:52.555Z,6.37
2018-12-23T10:01:21.138Z,6.83
2018-12-23T10:03:49.613Z,5.37
2018-12-23T10:06:18.144Z,5.30
2018-12-23T10:08:46.702Z,5.40
2018-12-23T10:11:15.242Z,4.90
2018-12-23T10:13:43.983Z,5.57
2018-12-23T10:16:12.511Z,5.43
2018-12-23T10:18:41.037Z,5.10
2018-12-23T10:21:10.229Z,6.00
2018-12-23T10:23:39.078Z,5.17
2018-12-23T10:26:07.586Z,5.30
2018-12-23T10:28:36.217Z,5.37
2018-12-23T10:31:04.761Z,5.13
2018-12-23T10:33:33.272Z,4.77
2018-12-23T10:36:01.782Z,5.23
2018-12-23T10:38:30.329Z,5.17
2018-12-23T10:40:58.869Z,4.33
2018-12-23T10:43:27.391Z,4.60
2018-12-23T10:45:55.832Z,4.23
2018-12-23T10:48:24.309Z,5.10
2018-12-23T10:50:52.872Z,4.20
2018-12-23T10:53:27.207Z,4.17
2018-12-23T10:55:56.072Z,3.87
2018-12-23T10:58:24.570Z,4.30
2018-12-23T11:00:53.060Z,4.13
2018-12-23T11:03:21.546Z,4.73
2018-12-23T11:06:21.903Z,5.40
2018-12-23T11:08:51.593Z,4.97
2018-12-23T11:11:21.164Z,5.53
2018-12-23T11:13:50.640Z,5.37
2018-12-23T11:16:20.247Z,5.03
2018-12-23T11:18:49.735Z,4.60
2018-12-23T11:21:19.238Z,4.87
2018-12-23T11:23:48.746Z,4.77
2018-12-23T11:26:18.294Z,4.83
2018-12-23T11:28:47.776Z,4.87
2018-12-23T11:31:17.452Z,5.40
2018-12-23T11:33:46.982Z,5.40
2018-12-23T11:36:16.503Z,5.20
2018-12-23T11:38:45.991Z,5.13
2018-12-23T11:41:15.522Z,4.50
2018-12-23T11:43:45.017Z,5.83
2018-12-23T11:46:14.506Z,5.07
2018-12-23T11:48:44.080Z,5.00
2018-12-23T11:51:13.553Z,5.30
2018-12-23T11:53:43.083Z,5.13
2018-12-23T11:56:12.703Z,5.23
2018-12-23T11:58:42.321Z,5.67
2018-12-23T12:01:11.857Z,4.67
2018-12-23T12:03:41.390Z,4.60
2018-12-23T12:06:10.995Z,5.00
2018-12-23T12:08:43.891Z,4.83
2018-12-23T12:11:11.927Z,3.93
2018-12-23T12:13:41.448Z,4.00
2018-12-23T12:16:10.975Z,4.33
2018-12-23T12:18:40.560Z,4.13
2018-12-23T12:21:10.027Z,4.23
2018-12-23T12:23:39.561Z,4.90
2018-12-23T12:26:09.078Z,5.30
2018-12-23T12:28:38.770Z,4.80
2018-12-23T12:31:08.238Z,4.97
2018-12-23T12:33:37.783Z,4.47
2018-12-23T12:36:07.242Z,4.73
2018-12-23T12:38:36.780Z,5.13
2018-12-23T12:41:06.320Z,4.57
2018-12-23T12:43:35.804Z,5.80
2018-12-23T12:46:05.286Z,5.93
2018-12-23T12:48:34.836Z,6.60
2018-12-23T12:51:04.386Z,4.93
2018-12-23T12:53:33.884Z,4.80
2018-12-23T12:56:03.394Z,5.03
2018-12-23T12:58:32.875Z,5.27
2018-12-23T13:01:02.410Z,5.43
2018-12-23T13:03:31.912Z,5.43
2018-12-23T13:06:01.582Z,5.60
2018-12-23T13:08:31.129Z,5.93
2018-12-23T13:11:00.641Z,5.60
2018-12-23T13:13:30.250Z,5.03
2018-12-23T13:15:59.746Z,5.10
2018-12-23T13:18:29.284Z,4.57
2018-12-23T13:20:58.869Z,4.10
2018-12-23T13:23:28.435Z,4.87
2018-12-23T13:25:57.960Z,4.90
2018-12-23T13:28:27.560Z,4.63
2018-12-23T13:30:57.098Z,5.47
2018-12-23T13:33:26.797Z,5.00
2018-12-23T13:35:56.379Z,4.17
2018-12-23T13:38:25.888Z,4.10
2018-12-23T13:41:38.498Z,4.07
2018-12-23T13:44:41.794Z,4.60
2018-12-23T13:47:52.188Z,4.00
2018-12-23T13:50:56.258Z,3.30
2018-12-23T13:53:57.577Z,3.40
2018-12-23T13:57:03.799Z,3.87
2018-12-23T13:59:57.193Z,3.43
2018-12-23T14:03:08.250Z,3.73
2018-12-23T14:06:03.810Z,3.40
2018-12-23T14:09:17.283Z,3.77
2018-12-23T14:11:58.999Z,4.47
2018-12-23T14:14:28.605Z,4.50
2018-12-23T14:16:58.148Z,4.13
2018-12-23T14:19:27.982Z,3.80
2018-12-23T14:21:57.517Z,3.73
2018-12-23T14:24:27.064Z,3.00
2018-12-23T14:26:56.687Z,3.20
2018-12-23T14:29:26.231Z,3.20
2018-12-23T14:31:55.722Z,3.90
2018-12-23T14:34:25.198Z,3.30
2018-12-23T14:36:54.836Z,4.00
2018-12-23T14:39:27.288Z,4.80
2018-12-23T14:41:55.605Z,5.07
2018-12-23T14:44:25.084Z,4.33
2018-12-23T14:46:54.567Z,4.10
2018-12-23T14:49:24.111Z,4.30
2018-12-23T14:51:53.552Z,3.57
2018-12-23T14:54:23.167Z,3.30
2018-12-23T14:56:52.615Z,3.93
2018-12-23T14:59:22.141Z,2.73
2018-12-23T15:01:51.622Z,2.80
2018-12-23T15:04:21.305Z,2.70
2018-12-23T15:06:50.760Z,2.50
2018-12-23T15:09:20.574Z,2.90
2018-12-23T15:11:50.101Z,2.90
2018-12-23T15:14:19.624Z,2.43
2018-12-23T15:16:49.076Z,2.23
2018-12-23T15:19:18.552Z,2.97
2018-12-23T15:21:48.109Z,3.40
2018-12-23T15:24:17.586Z,3.23
2018-12-23T15:26:47.088Z,2.87
2018-12-23T15:29:16.554Z,2.80
2018-12-23T15:31:46.417Z,2.87
2018-12-23T15:34:15.862Z,2.67
2018-12-23T15:36:45.451Z,3.00
2018-12-23T15:39:14.923Z,2.67
2018-12-23T15:41:44.403Z,2.80
2018-12-23T15:44:13.909Z,2.73
2018-12-23T15:46:43.841Z,3.00
2018-12-23T15:49:13.574Z,2.90
2018-12-23T15:52:02.066Z,2.87
2018-12-23T15:54:31.564Z,4.00
2018-12-23T15:57:01.164Z,4.17
2018-12-23T15:59:30.595Z,4.00
2018-12-23T16:02:00.085Z,4.87
2018-12-23T16:04:29.541Z,4.30
2018-12-23T16:06:59.033Z,5.73
2018-12-23T16:09:28.524Z,3.60
2018-12-23T16:11:58.083Z,4.53
2018-12-23T16:14:27.546Z,3.97
2018-12-23T16:16:57.128Z,4.10
2018-12-23T16:19:26.882Z,3.93
2018-12-23T16:21:56.449Z,2.90
2018-12-23T16:24:25.939Z,3.20
2018-12-23T16:26:55.442Z,3.10
2018-12-23T16:29:24.959Z,3.10
2018-12-23T16:34:29.774Z,2.80
2018-12-23T16:36:59.507Z,2.47
2018-12-23T16:39:29.025Z,2.10
2018-12-23T16:41:58.515Z,2.57
2018-12-23T16:44:28.333Z,2.60
2018-12-23T16:46:57.901Z,2.23
2018-12-23T16:49:27.375Z,3.03
2018-12-23T16:51:56.912Z,2.60
2018-12-23T16:54:26.400Z,2.13
2018-12-23T16:56:55.922Z,2.57
2018-12-23T16:59:25.397Z,2.33
2018-12-23T17:01:54.875Z,2.43
2018-12-23T17:04:24.370Z,2.47
2018-12-23T17:06:53.915Z,3.10
2018-12-23T17:09:23.509Z,3.30
2018-12-23T17:14:41.375Z,2.17
2018-12-23T17:17:10.988Z,2.77
2018-12-23T17:19:40.583Z,2.40
2018-12-23T17:22:10.077Z,2.90
2018-12-23T17:24:39.586Z,2.83
2018-12-23T17:27:09.101Z,2.80
2018-12-23T17:29:38.622Z,2.50
2018-12-23T17:32:08.102Z,2.43
2018-12-23T17:34:37.593Z,2.17
2018-12-23T17:37:07.065Z,2.10
2018-12-23T17:39:36.566Z,2.20
2018-12-23T17:42:06.099Z,2.10
2018-12-23T17:44:35.568Z,2.50
2018-12-23T17:47:05.024Z,2.20
2018-12-23T17:49:34.548Z,2.10
2018-12-23T17:52:04.017Z,1.93
2018-12-23T17:54:33.555Z,1.60
2018-12-23T17:57:03.034Z,1.63
2018-12-23T17:59:32.622Z,2.40
2018-12-23T18:02:02.117Z,1.97
2018-12-23T18:04:31.615Z,2.37
2018-12-23T18:07:20.194Z,2.43
2018-12-23T18:09:49.805Z,3.20
2018-12-23T18:12:19.339Z,2.77
2018-12-23T18:14:48.811Z,3.17
2018-12-23T18:17:18.471Z,3.40
2018-12-23T18:19:47.982Z,4.10
2018-12-23T18:22:17.662Z,3.67
2018-12-23T18:24:47.235Z,4.23
2018-12-23T18:27:16.809Z,4.03
2018-12-23T18:29:46.360Z,4.00
2018-12-23T18:32:15.887Z,5.70
2018-12-23T18:34:45.359Z,6.40
2018-12-23T18:37:14.952Z,6.10
2018-12-23T18:39:44.434Z,5.63
2018-12-23T18:42:13.938Z,4.97
2018-12-23T18:44:43.419Z,6.10
2018-12-23T18:47:12.926Z,4.00
2018-12-23T18:49:42.421Z,3.73
2018-12-23T18:52:11.956Z,3.97
2018-12-23T18:54:41.405Z,3.87
2018-12-23T18:57:12.745Z,4.57
2018-12-23T18:59:45.828Z,4.10
2018-12-23T19:02:36.024Z,4.17
2018-12-23T19:05:05.605Z,4.40
2018-12-23T19:07:35.080Z,4.27
2018-12-23T19:10:17.209Z,4.93
2018-12-23T19:13:14.744Z,5.00
2018-12-23T19:16:22.263Z,5.43
2018-12-23T19:19:29.883Z,6.17
2018-12-23T19:22:37.455Z,6.30
2018-12-23T19:25:45.052Z,6.33
2018-12-23T19:28:52.612Z,6.93
2018-12-23T19:31:48.965Z,8.07
2018-12-23T19:34:48.163Z,7.73
2018-12-23T19:37:55.718Z,7.67
2018-12-23T19:41:03.260Z,8.37
2018-12-23T19:44:10.868Z,7.27
2018-12-23T19:47:14.090Z,8.77
2018-12-23T19:50:03.703Z,8.40
2018-12-23T19:53:11.226Z,8.73
2018-12-23T19:56:06.113Z,7.87
2018-12-23T19:59:13.722Z,7.80
2018-12-23T20:02:21.315Z,8.00
2018-12-23T20:05:28.865Z,7.67
2018-12-23T20:08:22.025Z,8.20
2018-12-23T20:11:32.772Z,7.90
2018-12-23T20:14:40.348Z,6.80
2018-12-23T20:17:47.867Z,6.03
2018-12-23T20:20:55.438Z,5.67
2018-12-23T20:27:01.094Z,4.30
2018-12-23T20:30:01.101Z,3.97
2018-12-23T20:36:02.739Z,3.30
2018-12-23T20:39:10.259Z,3.60
2018-12-23T20:42:17.978Z,4.17
2018-12-23T20:45:28.557Z,3.67
2018-12-23T20:48:36.052Z,5.77
2018-12-23T20:51:43.591Z,2.47
2018-12-23T20:54:49.463Z,3.27
2018-12-23T20:57:42.804Z,3.07
2018-12-23T21:00:50.379Z,2.97
2018-12-23T21:03:42.535Z,2.20
2018-12-23T21:06:50.074Z,1.10
2018-12-23T21:10:00.639Z,1.53
2018-12-23T21:13:09.206Z,1.40
2018-12-23T21:16:16.721Z,1.87
2018-12-23T21:19:12.060Z,1.50
2018-12-23T21:22:04.285Z,1.77
2018-12-23T21:25:11.795Z,1.90
2018-12-23T21:28:19.406Z,2.37
2018-12-23T21:31:26.905Z,1.90
2018-12-23T21:34:34.434Z,1.90
2018-12-23T21:37:27.832Z,2.23
2018-12-23T21:40:35.376Z,2.20
2018-12-23T21:43:44.324Z,2.20
2018-12-23T21:46:52.132Z,2.30
2018-12-23T21:49:59.745Z,2.07
2018-12-23T21:53:02.628Z,2.10
2018-12-23T21:56:10.128Z,1.93
2018-12-23T21:59:05.884Z,1.53
2018-12-23T22:09:33.524Z,1.60
2018-12-23T22:12:41.018Z,2.00
2018-12-23T22:15:10.628Z,1.90
2018-12-23T22:17:40.050Z,2.53
2018-12-23T22:20:09.623Z,2.47
2018-12-23T22:22:39.074Z,2.80
2018-12-23T22:25:08.714Z,2.53
2018-12-23T22:27:38.205Z,2.60
2018-12-23T22:30:07.726Z,2.83
2018-12-23T22:32:37.209Z,4.07
2018-12-23T22:35:06.805Z,3.90
2018-12-23T22:37:36.278Z,4.67
2018-12-23T22:40:06.206Z,4.30
2018-12-23T22:42:35.741Z,4.60
2018-12-23T22:45:05.300Z,3.43
2018-12-23T22:47:34.804Z,4.60
2018-12-23T22:50:04.249Z,4.47
2018-12-23T22:52:33.703Z,3.73
2018-12-23T22:55:03.148Z,3.03
2018-12-23T22:57:32.657Z,2.70
2018-12-23T23:00:02.128Z,3.80
2018-12-23T23:02:31.725Z,2.30
2018-12-23T23:05:01.186Z,2.27
2018-12-23T23:07:30.627Z,1.90
2018-12-23T23:10:00.166Z,1.90
2018-12-23T23:12:29.680Z,2.20
2018-12-23T23:14:59.181Z,2.00
2018-12-23T23:17:28.679Z,2.20
2018-12-23T23:19:58.117Z,1.97
2018-12-23T23:22:27.540Z,2.03
2018-12-23T23:24:56.995Z,2.23
2018-12-23T23:27:26.475Z,2.83
2018-12-23T23:29:55.905Z,3.03
2018-12-23T23:32:25.371Z,3.00
2018-12-23T23:34:54.863Z,2.60
2018-12-23T23:37:24.338Z,2.00
2018-12-23T23:39:53.775Z,2.40
2018-12-23T23:44:58.419Z,2.67
2018-12-23T23:47:28.013Z,2.23
2018-12-23T23:49:57.462Z,2.50
2018-12-23T23:52:26.991Z,2.60
2018-12-23T23:54:56.546Z,2.43
2018-12-23T23:57:25.960Z,2.60
2018-12-23T23:59:55.439Z,2.20
